sensor_id;sensor_type;location;lat;lon;timestamp;P1;durP1;ratioP1;P2;durP2;ratioP2
61899;SDS011;47853;55.890;37.664;2023-04-03T00:01:49;11.30;;;7.23;;
61899;SDS011;47853;55.890;37.664;2023-04-03T00:04:14;9.00;;;7.30;;
61899;SDS011;47853;55.890;37.664;2023-04-03T00:06:39;19.90;;;8.73;;
61899;SDS011;47853;55.890;37.664;2023-04-03T00:09:04;10.70;;;7.43;;
61899;SDS011;47853;55.890;37.664;2023-04-03T00:11:29;13.93;;;7.65;;
61899;SDS011;47853;55.890;37.664;2023-04-03T00:13:55;13.33;;;8.60;;
61899;SDS011;47853;55.890;37.664;2023-04-03T00:16:20;13.47;;;8.27;;
61899;SDS011;47853;55.890;37.664;2023-04-03T00:18:45;23.50;;;12.67;;
61899;SDS011;47853;55.890;37.664;2023-04-03T00:21:12;14.17;;;9.30;;
61899;SDS011;47853;55.890;37.664;2023-04-03T00:23:37;15.48;;;8.63;;
61899;SDS011;47853;55.890;37.664;2023-04-03T00:26:03;13.40;;;8.37;;
61899;SDS011;47853;55.890;37.664;2023-04-03T00:28:28;19.20;;;9.65;;
61899;SDS011;47853;55.890;37.664;2023-04-03T00:30:53;17.73;;;8.10;;
61899;SDS011;47853;55.890;37.664;2023-04-03T00:33:18;14.13;;;8.33;;
61899;SDS011;47853;55.890;37.664;2023-04-03T00:35:43;15.07;;;8.88;;
61899;SDS011;47853;55.890;37.664;2023-04-03T00:38:09;12.90;;;7.87;;
61899;SDS011;47853;55.890;37.664;2023-04-03T00:40:35;13.23;;;7.53;;
61899;SDS011;47853;55.890;37.664;2023-04-03T00:43:01;14.65;;;7.75;;
61899;SDS011;47853;55.890;37.664;2023-04-03T00:45:31;15.30;;;8.17;;
61899;SDS011;47853;55.890;37.664;2023-04-03T00:47:57;13.82;;;8.43;;
61899;SDS011;47853;55.890;37.664;2023-04-03T00:50:22;11.27;;;7.43;;
61899;SDS011;47853;55.890;37.664;2023-04-03T00:52:48;12.65;;;8.07;;
61899;SDS011;47853;55.890;37.664;2023-04-03T00:55:13;17.42;;;9.10;;
61899;SDS011;47853;55.890;37.664;2023-04-03T00:57:38;14.10;;;7.78;;
61899;SDS011;47853;55.890;37.664;2023-04-03T01:00:08;10.87;;;7.60;;
61899;SDS011;47853;55.890;37.664;2023-04-03T01:02:33;12.98;;;7.15;;
61899;SDS011;47853;55.890;37.664;2023-04-03T01:04:58;13.67;;;7.83;;
61899;SDS011;47853;55.890;37.664;2023-04-03T01:07:26;18.65;;;9.45;;
61899;SDS011;47853;55.890;37.664;2023-04-03T01:09:53;16.35;;;9.00;;
61899;SDS011;47853;55.890;37.664;2023-04-03T01:12:21;12.63;;;8.20;;
61899;SDS011;47853;55.890;37.664;2023-04-03T01:14:51;12.38;;;7.85;;
61899;SDS011;47853;55.890;37.664;2023-04-03T01:17:36;17.08;;;6.97;;
61899;SDS011;47853;55.890;37.664;2023-04-03T01:22:44;13.50;;;7.82;;
61899;SDS011;47853;55.890;37.664;2023-04-03T01:25:11;14.00;;;9.07;;
61899;SDS011;47853;55.890;37.664;2023-04-03T01:27:36;12.70;;;8.13;;
61899;SDS011;47853;55.890;37.664;2023-04-03T01:30:02;14.33;;;7.53;;
61899;SDS011;47853;55.890;37.664;2023-04-03T01:32:27;15.70;;;7.90;;
61899;SDS011;47853;55.890;37.664;2023-04-03T01:34:52;11.83;;;7.87;;
61899;SDS011;47853;55.890;37.664;2023-04-03T01:37:17;12.50;;;7.70;;
61899;SDS011;47853;55.890;37.664;2023-04-03T01:39:42;13.97;;;7.93;;
61899;SDS011;47853;55.890;37.664;2023-04-03T01:42:08;10.95;;;8.35;;
61899;SDS011;47853;55.890;37.664;2023-04-03T01:44:33;11.03;;;7.30;;
61899;SDS011;47853;55.890;37.664;2023-04-03T01:46:59;16.33;;;9.00;;
61899;SDS011;47853;55.890;37.664;2023-04-03T01:49:24;13.57;;;8.70;;
61899;SDS011;47853;55.890;37.664;2023-04-03T01:51:49;11.57;;;7.70;;
61899;SDS011;47853;55.890;37.664;2023-04-03T01:54:14;13.80;;;7.30;;
61899;SDS011;47853;55.890;37.664;2023-04-03T01:56:39;15.40;;;8.50;;
61899;SDS011;47853;55.890;37.664;2023-04-03T01:59:04;20.73;;;8.03;;
61899;SDS011;47853;55.890;37.664;2023-04-03T02:01:30;17.87;;;8.53;;
61899;SDS011;47853;55.890;37.664;2023-04-03T02:03:55;13.37;;;8.10;;
61899;SDS011;47853;55.890;37.664;2023-04-03T02:06:20;13.37;;;7.23;;
61899;SDS011;47853;55.890;37.664;2023-04-03T02:08:45;12.77;;;6.87;;
61899;SDS011;47853;55.890;37.664;2023-04-03T02:11:10;12.10;;;7.50;;
61899;SDS011;47853;55.890;37.664;2023-04-03T02:13:35;19.93;;;8.33;;
61899;SDS011;47853;55.890;37.664;2023-04-03T02:16:06;15.43;;;7.50;;
61899;SDS011;47853;55.890;37.664;2023-04-03T02:18:31;12.30;;;7.40;;
61899;SDS011;47853;55.890;37.664;2023-04-03T02:20:56;15.30;;;8.87;;
61899;SDS011;47853;55.890;37.664;2023-04-03T02:23:21;16.10;;;7.90;;
61899;SDS011;47853;55.890;37.664;2023-04-03T02:25:46;11.63;;;7.40;;
61899;SDS011;47853;55.890;37.664;2023-04-03T02:28:11;12.43;;;7.57;;
61899;SDS011;47853;55.890;37.664;2023-04-03T02:30:36;13.57;;;7.73;;
61899;SDS011;47853;55.890;37.664;2023-04-03T02:33:02;12.20;;;7.73;;
61899;SDS011;47853;55.890;37.664;2023-04-03T02:35:27;14.20;;;7.90;;
61899;SDS011;47853;55.890;37.664;2023-04-03T02:37:52;15.93;;;8.57;;
61899;SDS011;47853;55.890;37.664;2023-04-03T02:40:17;11.97;;;8.27;;
61899;SDS011;47853;55.890;37.664;2023-04-03T02:42:42;15.37;;;8.07;;
61899;SDS011;47853;55.890;37.664;2023-04-03T02:45:08;15.23;;;8.33;;
61899;SDS011;47853;55.890;37.664;2023-04-03T02:47:33;15.52;;;8.80;;
61899;SDS011;47853;55.890;37.664;2023-04-03T02:49:58;22.33;;;8.80;;
61899;SDS011;47853;55.890;37.664;2023-04-03T02:52:23;19.73;;;8.80;;
61899;SDS011;47853;55.890;37.664;2023-04-03T02:54:48;15.83;;;9.70;;
61899;SDS011;47853;55.890;37.664;2023-04-03T02:57:13;17.67;;;10.00;;
61899;SDS011;47853;55.890;37.664;2023-04-03T02:59:39;17.08;;;10.00;;
61899;SDS011;47853;55.890;37.664;2023-04-03T03:02:04;19.53;;;9.80;;
61899;SDS011;47853;55.890;37.664;2023-04-03T03:04:29;20.05;;;9.68;;
61899;SDS011;47853;55.890;37.664;2023-04-03T03:06:54;20.80;;;10.07;;
61899;SDS011;47853;55.890;37.664;2023-04-03T03:09:19;32.73;;;18.70;;
61899;SDS011;47853;55.890;37.664;2023-04-03T03:11:44;18.08;;;9.95;;
61899;SDS011;47853;55.890;37.664;2023-04-03T03:14:10;21.50;;;11.27;;
61899;SDS011;47853;55.890;37.664;2023-04-03T03:16:35;21.50;;;10.20;;
61899;SDS011;47853;55.890;37.664;2023-04-03T03:19:00;20.33;;;11.20;;
61899;SDS011;47853;55.890;37.664;2023-04-03T03:21:25;20.20;;;11.67;;
61899;SDS011;47853;55.890;37.664;2023-04-03T03:23:50;15.50;;;10.33;;
61899;SDS011;47853;55.890;37.664;2023-04-03T03:26:15;19.92;;;12.55;;
61899;SDS011;47853;55.890;37.664;2023-04-03T03:28:41;18.63;;;11.00;;
61899;SDS011;47853;55.890;37.664;2023-04-03T03:31:06;18.63;;;12.30;;
61899;SDS011;47853;55.890;37.664;2023-04-03T03:33:35;20.95;;;11.80;;
61899;SDS011;47853;55.890;37.664;2023-04-03T03:36:00;25.10;;;12.45;;
61899;SDS011;47853;55.890;37.664;2023-04-03T03:38:25;18.83;;;12.87;;
61899;SDS011;47853;55.890;37.664;2023-04-03T03:40:51;21.00;;;13.52;;
61899;SDS011;47853;55.890;37.664;2023-04-03T03:43:16;29.13;;;15.50;;
61899;SDS011;47853;55.890;37.664;2023-04-03T03:45:41;22.83;;;14.10;;
61899;SDS011;47853;55.890;37.664;2023-04-03T03:48:07;22.02;;;12.82;;
61899;SDS011;47853;55.890;37.664;2023-04-03T03:50:32;18.83;;;13.40;;
61899;SDS011;47853;55.890;37.664;2023-04-03T03:52:57;24.45;;;14.48;;
61899;SDS011;47853;55.890;37.664;2023-04-03T03:55:22;24.67;;;13.97;;
61899;SDS011;47853;55.890;37.664;2023-04-03T03:57:47;25.97;;;16.10;;
61899;SDS011;47853;55.890;37.664;2023-04-03T04:00:13;18.63;;;12.87;;
61899;SDS011;47853;55.890;37.664;2023-04-03T04:02:38;18.10;;;12.90;;
61899;SDS011;47853;55.890;37.664;2023-04-03T04:05:03;26.27;;;13.73;;
61899;SDS011;47853;55.890;37.664;2023-04-03T04:07:29;21.42;;;12.55;;
61899;SDS011;47853;55.890;37.664;2023-04-03T04:09:54;28.83;;;14.20;;
61899;SDS011;47853;55.890;37.664;2023-04-03T04:12:19;23.52;;;13.45;;
61899;SDS011;47853;55.890;37.664;2023-04-03T04:14:44;24.35;;;13.23;;
61899;SDS011;47853;55.890;37.664;2023-04-03T04:17:09;21.63;;;12.13;;
61899;SDS011;47853;55.890;37.664;2023-04-03T04:19:35;26.77;;;14.67;;
61899;SDS011;47853;55.890;37.664;2023-04-03T04:22:00;18.50;;;12.00;;
61899;SDS011;47853;55.890;37.664;2023-04-03T04:24:25;19.60;;;12.55;;
61899;SDS011;47853;55.890;37.664;2023-04-03T04:26:51;21.73;;;13.33;;
61899;SDS011;47853;55.890;37.664;2023-04-03T04:29:16;17.03;;;10.97;;
61899;SDS011;47853;55.890;37.664;2023-04-03T04:31:41;21.48;;;12.30;;
61899;SDS011;47853;55.890;37.664;2023-04-03T04:34:06;26.30;;;11.77;;
61899;SDS011;47853;55.890;37.664;2023-04-03T04:36:32;21.95;;;12.88;;
61899;SDS011;47853;55.890;37.664;2023-04-03T04:38:57;16.67;;;10.40;;
61899;SDS011;47853;55.890;37.664;2023-04-03T04:41:22;21.23;;;10.70;;
61899;SDS011;47853;55.890;37.664;2023-04-03T04:43:50;21.67;;;10.05;;
61899;SDS011;47853;55.890;37.664;2023-04-03T04:46:15;19.55;;;11.00;;
61899;SDS011;47853;55.890;37.664;2023-04-03T04:48:40;18.50;;;11.00;;
61899;SDS011;47853;55.890;37.664;2023-04-03T04:51:05;18.53;;;11.63;;
61899;SDS011;47853;55.890;37.664;2023-04-03T04:53:31;21.90;;;10.88;;
61899;SDS011;47853;55.890;37.664;2023-04-03T04:55:56;16.43;;;10.07;;
61899;SDS011;47853;55.890;37.664;2023-04-03T04:58:21;16.33;;;10.10;;
61899;SDS011;47853;55.890;37.664;2023-04-03T05:00:46;22.13;;;10.00;;
61899;SDS011;47853;55.890;37.664;2023-04-03T05:03:12;15.45;;;9.40;;
61899;SDS011;47853;55.890;37.664;2023-04-03T05:05:40;20.30;;;9.75;;
61899;SDS011;47853;55.890;37.664;2023-04-03T05:08:05;15.27;;;8.55;;
61899;SDS011;47853;55.890;37.664;2023-04-03T05:10:30;13.77;;;10.15;;
61899;SDS011;47853;55.890;37.664;2023-04-03T05:12:56;15.05;;;9.27;;
61899;SDS011;47853;55.890;37.664;2023-04-03T05:15:21;18.27;;;9.95;;
61899;SDS011;47853;55.890;37.664;2023-04-03T05:17:46;15.17;;;9.60;;
61899;SDS011;47853;55.890;37.664;2023-04-03T05:20:11;14.13;;;9.20;;
61899;SDS011;47853;55.890;37.664;2023-04-03T05:22:37;21.40;;;9.55;;
61899;SDS011;47853;55.890;37.664;2023-04-03T05:25:02;15.70;;;10.27;;
61899;SDS011;47853;55.890;37.664;2023-04-03T05:27:27;14.63;;;8.45;;
61899;SDS011;47853;55.890;37.664;2023-04-03T05:29:52;16.17;;;9.43;;
61899;SDS011;47853;55.890;37.664;2023-04-03T05:32:18;18.10;;;10.85;;
61899;SDS011;47853;55.890;37.664;2023-04-03T05:34:43;18.60;;;10.40;;
61899;SDS011;47853;55.890;37.664;2023-04-03T05:37:08;16.83;;;8.77;;
61899;SDS011;47853;55.890;37.664;2023-04-03T05:39:33;20.77;;;12.10;;
61899;SDS011;47853;55.890;37.664;2023-04-03T05:41:58;22.35;;;11.50;;
61899;SDS011;47853;55.890;37.664;2023-04-03T05:44:23;17.07;;;9.23;;
61899;SDS011;47853;55.890;37.664;2023-04-03T05:46:49;19.70;;;11.57;;
61899;SDS011;47853;55.890;37.664;2023-04-03T05:49:14;15.80;;;10.03;;
61899;SDS011;47853;55.890;37.664;2023-04-03T05:51:39;17.70;;;10.40;;
61899;SDS011;47853;55.890;37.664;2023-04-03T05:54:08;17.27;;;9.82;;
61899;SDS011;47853;55.890;37.664;2023-04-03T05:56:34;14.00;;;9.25;;
61899;SDS011;47853;55.890;37.664;2023-04-03T05:58:59;12.33;;;9.97;;
61899;SDS011;47853;55.890;37.664;2023-04-03T06:01:25;17.73;;;9.87;;
61899;SDS011;47853;55.890;37.664;2023-04-03T06:03:50;19.13;;;9.80;;
61899;SDS011;47853;55.890;37.664;2023-04-03T06:06:15;15.27;;;10.37;;
61899;SDS011;47853;55.890;37.664;2023-04-03T06:08:40;17.33;;;11.15;;
61899;SDS011;47853;55.890;37.664;2023-04-03T06:11:05;19.48;;;11.32;;
61899;SDS011;47853;55.890;37.664;2023-04-03T06:13:31;23.60;;;10.83;;
61899;SDS011;47853;55.890;37.664;2023-04-03T06:15:56;16.25;;;10.38;;
61899;SDS011;47853;55.890;37.664;2023-04-03T06:18:21;16.07;;;9.70;;
61899;SDS011;47853;55.890;37.664;2023-04-03T06:20:46;13.47;;;9.70;;
61899;SDS011;47853;55.890;37.664;2023-04-03T06:23:11;16.97;;;11.00;;
61899;SDS011;47853;55.890;37.664;2023-04-03T06:25:36;17.20;;;9.87;;
61899;SDS011;47853;55.890;37.664;2023-04-03T06:28:02;19.63;;;11.43;;
61899;SDS011;47853;55.890;37.664;2023-04-03T06:30:27;18.37;;;10.60;;
61899;SDS011;47853;55.890;37.664;2023-04-03T06:32:52;15.30;;;11.27;;
61899;SDS011;47853;55.890;37.664;2023-04-03T06:35:17;23.13;;;12.57;;
61899;SDS011;47853;55.890;37.664;2023-04-03T06:37:42;14.70;;;11.27;;
61899;SDS011;47853;55.890;37.664;2023-04-03T06:40:11;15.27;;;9.87;;
61899;SDS011;47853;55.890;37.664;2023-04-03T06:42:38;21.15;;;9.88;;
61899;SDS011;47853;55.890;37.664;2023-04-03T06:45:04;19.10;;;10.90;;
61899;SDS011;47853;55.890;37.664;2023-04-03T06:47:29;19.38;;;11.05;;
61899;SDS011;47853;55.890;37.664;2023-04-03T06:49:54;17.77;;;11.03;;
61899;SDS011;47853;55.890;37.664;2023-04-03T06:52:19;15.50;;;10.30;;
61899;SDS011;47853;55.890;37.664;2023-04-03T06:54:45;16.50;;;10.93;;
61899;SDS011;47853;55.890;37.664;2023-04-03T06:57:10;19.30;;;11.73;;
61899;SDS011;47853;55.890;37.664;2023-04-03T06:59:35;22.10;;;10.63;;
61899;SDS011;47853;55.890;37.664;2023-04-03T07:02:00;20.57;;;10.17;;
61899;SDS011;47853;55.890;37.664;2023-04-03T07:04:25;17.00;;;10.80;;
61899;SDS011;47853;55.890;37.664;2023-04-03T07:06:50;18.80;;;10.80;;
61899;SDS011;47853;55.890;37.664;2023-04-03T07:09:16;15.00;;;10.60;;
61899;SDS011;47853;55.890;37.664;2023-04-03T07:11:41;19.73;;;10.63;;
61899;SDS011;47853;55.890;37.664;2023-04-03T07:14:06;25.48;;;12.05;;
61899;SDS011;47853;55.890;37.664;2023-04-03T07:16:31;16.75;;;10.68;;
61899;SDS011;47853;55.890;37.664;2023-04-03T07:18:57;21.63;;;11.77;;
61899;SDS011;47853;55.890;37.664;2023-04-03T07:21:22;22.77;;;10.13;;
61899;SDS011;47853;55.890;37.664;2023-04-03T07:23:47;20.42;;;11.90;;
61899;SDS011;47853;55.890;37.664;2023-04-03T07:26:12;22.97;;;11.87;;
61899;SDS011;47853;55.890;37.664;2023-04-03T07:28:38;19.57;;;10.30;;
61899;SDS011;47853;55.890;37.664;2023-04-03T07:31:04;16.53;;;11.03;;
61899;SDS011;47853;55.890;37.664;2023-04-03T07:33:30;19.52;;;10.75;;
61899;SDS011;47853;55.890;37.664;2023-04-03T07:35:55;20.20;;;10.50;;
61899;SDS011;47853;55.890;37.664;2023-04-03T07:38:20;15.80;;;10.87;;
61899;SDS011;47853;55.890;37.664;2023-04-03T07:40:46;14.87;;;10.43;;
61899;SDS011;47853;55.890;37.664;2023-04-03T07:43:11;18.80;;;9.85;;
61899;SDS011;47853;55.890;37.664;2023-04-03T07:45:36;19.83;;;10.23;;
61899;SDS011;47853;55.890;37.664;2023-04-03T07:48:02;18.43;;;9.57;;
61899;SDS011;47853;55.890;37.664;2023-04-03T07:50:29;16.17;;;10.15;;
61899;SDS011;47853;55.890;37.664;2023-04-03T07:52:54;21.15;;;10.07;;
61899;SDS011;47853;55.890;37.664;2023-04-03T07:55:19;22.13;;;12.33;;
61899;SDS011;47853;55.890;37.664;2023-04-03T07:57:45;21.80;;;9.70;;
61899;SDS011;47853;55.890;37.664;2023-04-03T08:00:11;20.03;;;10.23;;
61899;SDS011;47853;55.890;37.664;2023-04-03T08:02:37;18.42;;;10.25;;
61899;SDS011;47853;55.890;37.664;2023-04-03T08:05:02;20.93;;;11.57;;
61899;SDS011;47853;55.890;37.664;2023-04-03T08:07:27;22.42;;;11.13;;
61899;SDS011;47853;55.890;37.664;2023-04-03T08:09:52;25.33;;;10.50;;
61899;SDS011;47853;55.890;37.664;2023-04-03T08:12:18;20.67;;;10.60;;
61899;SDS011;47853;55.890;37.664;2023-04-03T08:14:43;17.02;;;11.13;;
61899;SDS011;47853;55.890;37.664;2023-04-03T08:17:08;26.70;;;10.77;;
61899;SDS011;47853;55.890;37.664;2023-04-03T08:19:34;22.42;;;10.50;;
61899;SDS011;47853;55.890;37.664;2023-04-03T08:21:59;24.83;;;10.80;;
61899;SDS011;47853;55.890;37.664;2023-04-03T08:24:24;19.43;;;10.20;;
61899;SDS011;47853;55.890;37.664;2023-04-03T08:26:50;13.63;;;9.90;;
61899;SDS011;47853;55.890;37.664;2023-04-03T08:29:15;20.80;;;10.33;;
61899;SDS011;47853;55.890;37.664;2023-04-03T08:31:40;21.77;;;10.40;;
61899;SDS011;47853;55.890;37.664;2023-04-03T08:34:05;20.95;;;9.93;;
61899;SDS011;47853;55.890;37.664;2023-04-03T08:36:30;18.30;;;10.83;;
61899;SDS011;47853;55.890;37.664;2023-04-03T08:38:56;21.53;;;10.33;;
61899;SDS011;47853;55.890;37.664;2023-04-03T08:44:21;26.52;;;10.60;;
61899;SDS011;47853;55.890;37.664;2023-04-03T08:49:26;16.63;;;10.05;;
61899;SDS011;47853;55.890;37.664;2023-04-03T08:51:53;23.85;;;9.95;;
61899;SDS011;47853;55.890;37.664;2023-04-03T08:54:30;22.73;;;9.63;;
61899;SDS011;47853;55.890;37.664;2023-04-03T08:56:55;17.55;;;9.27;;
61899;SDS011;47853;55.890;37.664;2023-04-03T08:59:28;17.73;;;9.50;;
61899;SDS011;47853;55.890;37.664;2023-04-03T09:01:54;19.52;;;9.43;;
61899;SDS011;47853;55.890;37.664;2023-04-03T09:04:20;17.95;;;9.68;;
61899;SDS011;47853;55.890;37.664;2023-04-03T09:06:49;17.52;;;9.13;;
61899;SDS011;47853;55.890;37.664;2023-04-03T09:09:30;14.02;;;8.90;;
61899;SDS011;47853;55.890;37.664;2023-04-03T09:17:12;17.38;;;9.00;;
61899;SDS011;47853;55.890;37.664;2023-04-03T09:19:46;15.00;;;8.40;;
61899;SDS011;47853;55.890;37.664;2023-04-03T09:22:19;13.45;;;10.18;;
61899;SDS011;47853;55.890;37.664;2023-04-03T09:24:52;17.50;;;9.48;;
61899;SDS011;47853;55.890;37.664;2023-04-03T09:27:21;14.93;;;8.90;;
61899;SDS011;47853;55.890;37.664;2023-04-03T09:29:46;18.33;;;9.50;;
61899;SDS011;47853;55.890;37.664;2023-04-03T09:34:45;17.38;;;8.75;;
61899;SDS011;47853;55.890;37.664;2023-04-03T09:37:10;19.65;;;8.65;;
61899;SDS011;47853;55.890;37.664;2023-04-03T09:39:55;11.77;;;8.55;;
61899;SDS011;47853;55.890;37.664;2023-04-03T09:42:22;17.23;;;10.63;;
61899;SDS011;47853;55.890;37.664;2023-04-03T09:44:54;18.42;;;10.80;;
61899;SDS011;47853;55.890;37.664;2023-04-03T09:47:24;18.73;;;9.77;;
61899;SDS011;47853;55.890;37.664;2023-04-03T09:49:50;14.55;;;9.20;;
61899;SDS011;47853;55.890;37.664;2023-04-03T09:52:19;19.42;;;9.90;;
61899;SDS011;47853;55.890;37.664;2023-04-03T09:54:45;25.90;;;9.18;;
61899;SDS011;47853;55.890;37.664;2023-04-03T09:57:11;14.23;;;8.87;;
61899;SDS011;47853;55.890;37.664;2023-04-03T09:59:47;18.70;;;8.07;;
61899;SDS011;47853;55.890;37.664;2023-04-03T10:04:41;16.67;;;9.00;;
61899;SDS011;47853;55.890;37.664;2023-04-03T10:10:00;24.70;;;18.42;;
61899;SDS011;47853;55.890;37.664;2023-04-03T10:12:25;19.30;;;9.52;;
61899;SDS011;47853;55.890;37.664;2023-04-03T10:14:59;14.17;;;9.17;;
61899;SDS011;47853;55.890;37.664;2023-04-03T10:20:27;17.75;;;9.70;;
61899;SDS011;47853;55.890;37.664;2023-04-03T10:23:15;18.42;;;8.90;;
61899;SDS011;47853;55.890;37.664;2023-04-03T10:25:59;17.67;;;9.68;;
61899;SDS011;47853;55.890;37.664;2023-04-03T10:28:42;16.08;;;8.68;;
61899;SDS011;47853;55.890;37.664;2023-04-03T10:44:10;15.95;;;8.40;;
61899;SDS011;47853;55.890;37.664;2023-04-03T10:46:43;18.65;;;8.38;;
61899;SDS011;47853;55.890;37.664;2023-04-03T10:49:16;14.30;;;8.13;;
61899;SDS011;47853;55.890;37.664;2023-04-03T10:51:48;22.00;;;9.43;;
61899;SDS011;47853;55.890;37.664;2023-04-03T10:59:17;14.82;;;8.00;;
61899;SDS011;47853;55.890;37.664;2023-04-03T11:01:44;18.85;;;8.85;;
61899;SDS011;47853;55.890;37.664;2023-04-03T11:04:09;14.98;;;7.68;;
61899;SDS011;47853;55.890;37.664;2023-04-03T11:06:46;18.23;;;8.68;;
61899;SDS011;47853;55.890;37.664;2023-04-03T11:11:44;14.45;;;7.85;;
61899;SDS011;47853;55.890;37.664;2023-04-03T11:16:39;12.30;;;7.78;;
61899;SDS011;47853;55.890;37.664;2023-04-03T11:21:45;14.02;;;7.30;;
61899;SDS011;47853;55.890;37.664;2023-04-03T11:24:22;15.15;;;7.60;;
61899;SDS011;47853;55.890;37.664;2023-04-03T11:26:47;15.13;;;7.70;;
61899;SDS011;47853;55.890;37.664;2023-04-03T11:29:15;40.35;;;26.08;;
61899;SDS011;47853;55.890;37.664;2023-04-03T11:34:34;10.95;;;6.80;;
61899;SDS011;47853;55.890;37.664;2023-04-03T11:37:05;14.70;;;7.82;;
61899;SDS011;47853;55.890;37.664;2023-04-03T11:39:34;16.73;;;7.22;;
61899;SDS011;47853;55.890;37.664;2023-04-03T11:44:44;20.65;;;6.80;;
61899;SDS011;47853;55.890;37.664;2023-04-03T11:47:10;11.23;;;6.80;;
61899;SDS011;47853;55.890;37.664;2023-04-03T12:02:59;13.25;;;5.85;;
61899;SDS011;47853;55.890;37.664;2023-04-03T12:05:27;9.53;;;5.87;;
61899;SDS011;47853;55.890;37.664;2023-04-03T12:10:36;22.27;;;6.95;;
61899;SDS011;47853;55.890;37.664;2023-04-03T12:13:12;19.42;;;7.00;;
61899;SDS011;47853;55.890;37.664;2023-04-03T12:23:29;11.13;;;6.63;;
61899;SDS011;47853;55.890;37.664;2023-04-03T12:26:02;13.45;;;5.90;;
61899;SDS011;47853;55.890;37.664;2023-04-03T12:28:35;11.00;;;7.35;;
61899;SDS011;47853;55.890;37.664;2023-04-03T12:31:01;12.60;;;6.70;;
61899;SDS011;47853;55.890;37.664;2023-04-03T12:36:11;14.15;;;6.30;;
61899;SDS011;47853;55.890;37.664;2023-04-03T12:39:01;12.15;;;7.18;;
61899;SDS011;47853;55.890;37.664;2023-04-03T12:41:33;12.00;;;6.93;;
61899;SDS011;47853;55.890;37.664;2023-04-03T12:44:07;8.82;;;6.93;;
61899;SDS011;47853;55.890;37.664;2023-04-03T12:46:42;11.02;;;7.20;;
61899;SDS011;47853;55.890;37.664;2023-04-03T12:51:52;11.57;;;6.90;;
61899;SDS011;47853;55.890;37.664;2023-04-03T12:56:48;12.07;;;7.13;;
61899;SDS011;47853;55.890;37.664;2023-04-03T12:59:21;9.37;;;7.13;;
61899;SDS011;47853;55.890;37.664;2023-04-03T13:01:57;11.60;;;6.03;;
61899;SDS011;47853;55.890;37.664;2023-04-03T13:04:22;12.32;;;6.95;;
61899;SDS011;47853;55.890;37.664;2023-04-03T13:06:48;11.45;;;6.43;;
61899;SDS011;47853;55.890;37.664;2023-04-03T13:11:44;9.20;;;6.68;;
61899;SDS011;47853;55.890;37.664;2023-04-03T13:14:14;12.55;;;6.35;;
61899;SDS011;47853;55.890;37.664;2023-04-03T13:16:40;13.93;;;6.65;;
61899;SDS011;47853;55.890;37.664;2023-04-03T13:19:16;14.07;;;7.05;;
61899;SDS011;47853;55.890;37.664;2023-04-03T13:21:41;12.60;;;7.05;;
61899;SDS011;47853;55.890;37.664;2023-04-03T13:24:06;12.85;;;6.88;;
61899;SDS011;47853;55.890;37.664;2023-04-03T13:26:33;15.60;;;6.95;;
61899;SDS011;47853;55.890;37.664;2023-04-03T13:29:16;19.83;;;7.75;;
61899;SDS011;47853;55.890;37.664;2023-04-03T13:31:43;14.40;;;7.15;;
61899;SDS011;47853;55.890;37.664;2023-04-03T13:34:18;10.82;;;7.07;;
61899;SDS011;47853;55.890;37.664;2023-04-03T13:36:44;12.88;;;6.90;;
61899;SDS011;47853;55.890;37.664;2023-04-03T13:41:36;15.70;;;7.57;;
61899;SDS011;47853;55.890;37.664;2023-04-03T13:44:15;14.75;;;7.93;;
61899;SDS011;47853;55.890;37.664;2023-04-03T13:46:41;12.98;;;7.78;;
61899;SDS011;47853;55.890;37.664;2023-04-03T13:49:17;11.18;;;7.47;;
61899;SDS011;47853;55.890;37.664;2023-04-03T13:51:42;13.73;;;7.70;;
61899;SDS011;47853;55.890;37.664;2023-04-03T13:54:18;10.47;;;7.57;;
61899;SDS011;47853;55.890;37.664;2023-04-03T13:56:44;15.20;;;8.25;;
61899;SDS011;47853;55.890;37.664;2023-04-03T14:01:42;14.32;;;7.65;;
61899;SDS011;47853;55.890;37.664;2023-04-03T14:04:18;15.90;;;7.57;;
61899;SDS011;47853;55.890;37.664;2023-04-03T14:06:44;18.48;;;7.97;;
61899;SDS011;47853;55.890;37.664;2023-04-03T14:09:13;19.15;;;8.82;;
61899;SDS011;47853;55.890;37.664;2023-04-03T14:11:38;13.90;;;8.02;;
61899;SDS011;47853;55.890;37.664;2023-04-03T14:14:21;14.43;;;7.90;;
61899;SDS011;47853;55.890;37.664;2023-04-03T14:16:50;13.20;;;8.27;;
61899;SDS011;47853;55.890;37.664;2023-04-03T14:22:21;11.63;;;7.68;;
61899;SDS011;47853;55.890;37.664;2023-04-03T14:24:46;11.95;;;8.02;;
61899;SDS011;47853;55.890;37.664;2023-04-03T14:27:45;18.50;;;9.48;;
61899;SDS011;47853;55.890;37.664;2023-04-03T14:30:03;14.98;;;8.35;;
61899;SDS011;47853;55.890;37.664;2023-04-03T14:32:29;11.48;;;8.40;;
61899;SDS011;47853;55.890;37.664;2023-04-03T14:34:55;14.77;;;8.80;;
61899;SDS011;47853;55.890;37.664;2023-04-03T14:37:41;13.13;;;8.35;;
61899;SDS011;47853;55.890;37.664;2023-04-03T14:40:06;18.58;;;8.40;;
61899;SDS011;47853;55.890;37.664;2023-04-03T14:42:32;12.60;;;8.05;;
61899;SDS011;47853;55.890;37.664;2023-04-03T14:45:01;14.43;;;7.78;;
61899;SDS011;47853;55.890;37.664;2023-04-03T14:47:29;12.50;;;7.22;;
61899;SDS011;47853;55.890;37.664;2023-04-03T14:49:55;13.63;;;8.07;;
61899;SDS011;47853;55.890;37.664;2023-04-03T14:54:45;18.75;;;9.32;;
61899;SDS011;47853;55.890;37.664;2023-04-03T14:57:11;18.15;;;9.02;;
61899;SDS011;47853;55.890;37.664;2023-04-03T14:59:38;10.65;;;6.65;;
61899;SDS011;47853;55.890;37.664;2023-04-03T15:05:00;13.95;;;7.30;;
61899;SDS011;47853;55.890;37.664;2023-04-03T15:07:27;18.35;;;7.72;;
61899;SDS011;47853;55.890;37.664;2023-04-03T15:09:53;11.18;;;7.40;;
61899;SDS011;47853;55.890;37.664;2023-04-03T15:12:24;16.77;;;8.20;;
61899;SDS011;47853;55.890;37.664;2023-04-03T15:14:50;9.88;;;7.45;;
61899;SDS011;47853;55.890;37.664;2023-04-03T15:17:16;16.73;;;9.05;;
61899;SDS011;47853;55.890;37.664;2023-04-03T15:19:41;18.48;;;9.48;;
61899;SDS011;47853;55.890;37.664;2023-04-03T15:22:12;21.15;;;9.90;;
61899;SDS011;47853;55.890;37.664;2023-04-03T15:24:47;19.30;;;10.98;;
61899;SDS011;47853;55.890;37.664;2023-04-03T15:27:12;21.75;;;10.93;;
61899;SDS011;47853;55.890;37.664;2023-04-03T15:29:38;25.95;;;13.90;;
61899;SDS011;47853;55.890;37.664;2023-04-03T15:32:07;22.33;;;15.13;;
61899;SDS011;47853;55.890;37.664;2023-04-03T15:34:32;30.48;;;17.17;;
61899;SDS011;47853;55.890;37.664;2023-04-03T15:36:57;28.60;;;19.15;;
61899;SDS011;47853;55.890;37.664;2023-04-03T15:39:24;34.80;;;19.77;;
61899;SDS011;47853;55.890;37.664;2023-04-03T15:41:49;33.80;;;20.77;;
61899;SDS011;47853;55.890;37.664;2023-04-03T15:44:14;34.77;;;21.43;;
61899;SDS011;47853;55.890;37.664;2023-04-03T15:46:40;35.00;;;21.13;;
61899;SDS011;47853;55.890;37.664;2023-04-03T15:55:05;27.35;;;17.63;;
61899;SDS011;47853;55.890;37.664;2023-04-03T16:05:59;21.45;;;12.65;;
61899;SDS011;47853;55.890;37.664;2023-04-03T16:08:31;20.25;;;13.40;;
61899;SDS011;47853;55.890;37.664;2023-04-03T16:10:56;22.30;;;14.45;;
61899;SDS011;47853;55.890;37.664;2023-04-03T16:13:21;29.58;;;14.57;;